createdAt,value
2019-02-14T00:00:51.436Z,12.43
2019-02-14T00:05:55.914Z,11.13
2019-02-14T00:11:00.110Z,14.43
2019-02-14T00:16:04.978Z,16.17
2019-02-14T00:21:08.984Z,16.60
2019-02-14T00:26:12.399Z,11.20
2019-02-14T00:31:15.735Z,14.23
2019-02-14T00:36:19.343Z,9.97
2019-02-14T00:41:22.868Z,14.27
2019-02-14T00:46:27.102Z,16.60
2019-02-14T00:51:30.617Z,14.60
2019-02-14T00:56:34.097Z,14.23
2019-02-14T01:01:37.483Z,17.43
2019-02-14T01:06:42.576Z,16.40
2019-02-14T01:11:47.244Z,10.57
2019-02-14T01:16:52.855Z,14.77
2019-02-14T01:21:58.156Z,17.17
2019-02-14T01:27:03.687Z,22.73
2019-02-14T01:32:08.858Z,19.00
2019-02-14T01:37:13.863Z,16.33
2019-02-14T01:42:19.105Z,18.17
2019-02-14T01:47:24.624Z,19.57
2019-02-14T01:52:30.252Z,16.77
2019-02-14T01:57:36.304Z,19.30
2019-02-14T02:02:41.312Z,13.87
2019-02-14T02:07:46.492Z,13.43
2019-02-14T02:12:51.522Z,15.13
2019-02-14T02:17:56.553Z,16.57
2019-02-14T02:23:01.668Z,16.90
2019-02-14T02:28:06.998Z,16.53
2019-02-14T02:33:11.924Z,17.87
2019-02-14T02:38:17.024Z,18.30
2019-02-14T02:43:21.839Z,15.10
2019-02-14T02:48:26.837Z,14.07
2019-02-14T02:53:31.842Z,18.70
2019-02-14T02:58:38.071Z,13.03
2019-02-14T03:03:43.168Z,13.13
2019-02-14T03:08:48.049Z,13.53
2019-02-14T03:13:53.153Z,11.40
2019-02-14T03:18:58.022Z,14.87
2019-02-14T03:24:02.949Z,14.20
2019-02-14T03:29:07.819Z,12.83
2019-02-14T03:34:12.733Z,14.50
2019-02-14T03:39:18.896Z,12.27
2019-02-14T03:44:23.329Z,16.40
2019-02-14T03:49:28.773Z,21.00
2019-02-14T03:54:34.496Z,15.10
2019-02-14T03:59:39.410Z,13.10
2019-02-14T04:04:44.607Z,11.43
2019-02-14T04:09:49.117Z,21.03
2019-02-14T04:14:54.067Z,16.30
2019-02-14T04:19:58.906Z,12.27
2019-02-14T04:25:04.743Z,13.73
2019-02-14T04:30:10.358Z,12.87
2019-02-14T04:35:14.362Z,10.70
2019-02-14T04:40:18.330Z,13.00
2019-02-14T04:45:23.385Z,15.30
2019-02-14T04:50:27.612Z,14.20
2019-02-14T04:55:31.523Z,19.23
2019-02-14T05:00:35.989Z,12.53
2019-02-14T05:05:40.637Z,15.33
2019-02-14T05:10:45.891Z,16.60
2019-02-14T05:15:50.554Z,14.57
2019-02-14T05:20:55.028Z,13.97
2019-02-14T05:25:58.470Z,13.00
2019-02-14T05:31:01.868Z,15.80
2019-02-14T05:36:05.221Z,15.37
2019-02-14T05:41:08.939Z,13.57
2019-02-14T05:46:12.394Z,11.97
2019-02-14T05:51:16.341Z,15.23
2019-02-14T05:56:20.790Z,15.50
2019-02-14T06:01:24.839Z,14.00
2019-02-14T06:06:29.230Z,9.40
2019-02-14T06:11:33.717Z,12.67
2019-02-14T06:16:37.782Z,13.97
2019-02-14T06:21:42.367Z,15.23
2019-02-14T06:26:46.768Z,14.37
2019-02-14T06:31:51.151Z,14.87
2019-02-14T06:36:55.308Z,13.33
2019-02-14T06:41:59.380Z,16.87
2019-02-14T06:47:04.821Z,18.23
2019-02-14T06:52:10.755Z,14.40
2019-02-14T06:57:16.029Z,18.43
2019-02-14T07:02:21.989Z,13.23
2019-02-14T07:07:26.839Z,14.93
2019-02-14T07:12:31.998Z,18.20
2019-02-14T07:17:37.335Z,16.80
2019-02-14T07:22:42.348Z,35.67
2019-02-14T07:27:59.051Z,13.83
2019-02-14T07:33:04.075Z,15.03
2019-02-14T07:38:09.123Z,14.80
2019-02-14T07:43:14.100Z,15.90
2019-02-14T07:48:19.160Z,19.87
2019-02-14T07:53:24.197Z,16.33
2019-02-14T07:58:29.803Z,19.70
2019-02-14T08:03:35.273Z,20.13
2019-02-14T08:08:40.431Z,19.57
2019-02-14T08:13:45.760Z,23.60
2019-02-14T08:18:50.892Z,21.43
2019-02-14T08:23:55.825Z,28.73
2019-02-14T08:28:59.963Z,20.57
2019-02-14T08:34:04.740Z,26.70
2019-02-14T08:39:10.339Z,24.57
2019-02-14T08:44:15.251Z,34.60
2019-02-14T08:49:20.079Z,28.63
2019-02-14T08:54:25.080Z,36.07
2019-02-14T08:59:30.021Z,26.50
2019-02-14T09:04:35.521Z,30.73
2019-02-14T09:09:40.529Z,27.80
2019-02-14T09:14:45.592Z,29.33
2019-02-14T09:19:50.722Z,26.20
2019-02-14T09:24:56.523Z,23.77
2019-02-14T09:30:01.127Z,27.93
2019-02-14T09:35:07.014Z,25.27
2019-02-14T09:40:12.555Z,26.07
2019-02-14T09:45:16.894Z,32.33
2019-02-14T09:50:21.234Z,30.20
2019-02-14T09:55:25.104Z,30.03
2019-02-14T10:00:29.144Z,30.70
2019-02-14T10:05:33.366Z,28.00
2019-02-14T10:10:38.247Z,31.30
2019-02-14T10:15:42.487Z,27.90
2019-02-14T10:20:47.139Z,29.63
2019-02-14T10:25:51.227Z,28.47
2019-02-14T10:30:55.369Z,29.63
2019-02-14T10:36:00.009Z,28.57
2019-02-14T10:41:04.551Z,27.40
2019-02-14T10:46:08.836Z,33.07
2019-02-14T10:51:12.316Z,31.73
2019-02-14T10:56:17.136Z,34.97
2019-02-14T11:01:21.780Z,40.57
2019-02-14T11:06:26.738Z,36.20
2019-02-14T11:11:30.372Z,31.43
2019-02-14T11:16:34.714Z,35.40
2019-02-14T11:21:39.631Z,29.13
2019-02-14T11:26:45.005Z,35.47
2019-02-14T11:31:50.045Z,29.47
2019-02-14T11:36:55.119Z,33.13
2019-02-14T11:42:00.365Z,38.60
2019-02-14T11:47:07.647Z,34.73
2019-02-14T11:52:12.683Z,33.60
2019-02-14T11:57:17.942Z,33.83
2019-02-14T12:02:22.942Z,38.97
2019-02-14T12:07:29.266Z,38.93
2019-02-14T12:12:34.356Z,39.57
2019-02-14T12:17:39.429Z,35.00
2019-02-14T12:22:46.755Z,32.30
2019-02-14T12:27:51.737Z,33.20
2019-02-14T12:32:56.978Z,34.23
2019-02-14T12:38:05.219Z,34.87
2019-02-14T12:43:10.116Z,38.40
2019-02-14T12:48:15.551Z,34.07
2019-02-14T12:53:20.857Z,28.50
2019-02-14T12:58:26.330Z,31.30
2019-02-14T13:03:31.584Z,34.40
2019-02-14T13:14:21.222Z,35.57
2019-02-14T13:19:26.217Z,29.43
2019-02-14T13:24:31.915Z,40.03
2019-02-14T13:29:37.506Z,32.20
2019-02-14T13:34:42.715Z,38.10
2019-02-14T13:39:48.132Z,34.80
2019-02-14T13:44:53.425Z,38.70
2019-02-14T13:49:58.723Z,33.40
2019-02-14T13:55:04.381Z,34.10
2019-02-14T14:00:16.397Z,35.67
2019-02-14T14:05:19.835Z,37.03
2019-02-14T14:10:26.343Z,35.73
2019-02-14T14:15:30.568Z,33.43
2019-02-14T14:20:34.147Z,34.03
2019-02-14T14:25:37.789Z,36.10
2019-02-14T14:30:41.178Z,34.93
2019-02-14T14:35:44.867Z,37.00
2019-02-14T14:40:48.758Z,35.27
2019-02-14T14:46:16.493Z,35.70
2019-02-14T14:51:20.973Z,33.13
2019-02-14T14:56:25.113Z,40.73
2019-02-14T15:01:29.708Z,43.77
2019-02-14T15:06:33.985Z,39.67
2019-02-14T15:11:37.528Z,34.27
2019-02-14T15:16:41.930Z,37.03
2019-02-14T15:21:46.733Z,45.20
2019-02-14T15:26:50.101Z,78.90
2019-02-14T15:31:54.883Z,36.60
2019-02-14T15:36:59.093Z,50.97
2019-02-14T15:42:02.882Z,40.33
2019-02-14T15:47:07.105Z,39.00
2019-02-14T15:52:11.870Z,36.40
2019-02-14T15:57:18.203Z,36.87
2019-02-14T16:02:22.608Z,41.90
2019-02-14T16:07:41.487Z,46.00
2019-02-14T16:12:47.510Z,39.80
2019-02-14T16:17:52.603Z,41.10
2019-02-14T16:22:57.883Z,34.13
2019-02-14T16:28:03.231Z,41.03
2019-02-14T16:33:09.433Z,40.83
2019-02-14T16:38:14.671Z,37.90
2019-02-14T16:43:20.601Z,38.60
2019-02-14T16:48:25.595Z,48.87
2019-02-14T16:53:29.835Z,61.30
2019-02-14T16:58:39.046Z,51.20
2019-02-14T17:03:44.192Z,50.70
2019-02-14T17:08:49.805Z,52.13
2019-02-14T17:14:06.363Z,47.10
2019-02-14T17:19:11.979Z,46.10
2019-02-14T17:24:17.466Z,65.03
2019-02-14T17:29:23.291Z,59.50
2019-02-14T17:34:28.286Z,49.70
2019-02-14T17:39:33.482Z,44.90
2019-02-14T17:44:39.027Z,117.43
2019-02-14T17:49:44.025Z,87.33
2019-02-14T17:54:49.363Z,74.53
2019-02-14T17:59:54.577Z,63.97
2019-02-14T18:04:59.739Z,58.33
2019-02-14T18:10:05.603Z,60.77
2019-02-14T18:15:11.328Z,59.80
2019-02-14T18:20:16.570Z,56.70
2019-02-14T18:25:20.925Z,65.10
2019-02-14T18:30:25.887Z,52.10
2019-02-14T18:35:30.567Z,53.40
2019-02-14T18:40:35.087Z,49.40
2019-02-14T18:45:39.346Z,54.17
2019-02-14T18:50:43.979Z,49.10
2019-02-14T18:55:48.685Z,50.20
2019-02-14T19:00:53.514Z,47.50
